ITY640 LIRF-KSFO
Flight info
| Callsign | ITY640 |
|---|---|
| Flight time | N/A |
| Altitude | 34000 |
| Route | NEMBO GOVGO ITCAP AOSTA ORSUD MOLUS IBODI GOTED TRO CLM KOPOR VESAN RATUK SOVAT L613 LEHOC INPIP ERAKA 623000N/0200000W 643000N/0300000W 653000N/0400000W 660000N/0500000W EPMAN 653000N/0700000W 640000N/0800000W 613000N/0900000W 570000N/1000000W POLLE WALSH BOI FMG SWR T331 TIPRE RISTI1 |
| Aircraft | A339/H-SADE1E2E3GHIJ3J5M1P2RWXY/LB2D1 |
Departure
| Time | 2026-05-07 10:07 |
|---|---|
| Airport | Rome–Fiumicino Leonardo da Vinci International Airport (LIRF) |
Arrival
| Time | N/A |
|---|---|
| Airport | San Francisco International Airport (KSFO) |
| Time | Latitude | Longitude | Altitude | Speed | Heading |
|---|---|---|---|---|---|
| 2026-05-07 09:41 | 41.79695 | 12.24200 | 26 ft | 0 kts | 160° |
| 2026-05-07 09:51 | 41.79705 | 12.24195 | 26 ft | 2 kts | 160° |
| 2026-05-07 09:51 | 41.79719 | 12.24189 | 26 ft | 2 kts | 160° |
| 2026-05-07 09:51 | 41.79733 | 12.24182 | 26 ft | 2 kts | 161° |
| 2026-05-07 09:52 | 41.79747 | 12.24175 | 26 ft | 2 kts | 161° |
| 2026-05-07 09:52 | 41.79762 | 12.24173 | 26 ft | 2 kts | 188° |
| 2026-05-07 09:52 | 41.79776 | 12.24179 | 26 ft | 2 kts | 210° |
| 2026-05-07 09:52 | 41.79787 | 12.24192 | 26 ft | 2 kts | 232° |
| 2026-05-07 09:53 | 41.79793 | 12.24204 | 26 ft | 0 kts | 249° |
| 2026-05-07 09:53 | 41.79794 | 12.24209 | 26 ft | 0 kts | 250° |
| 2026-05-07 09:59 | 41.79792 | 12.24201 | 26 ft | 3 kts | 250° |
| 2026-05-07 09:59 | 41.79773 | 12.24132 | 26 ft | 11 kts | 249° |
| 2026-05-07 10:00 | 41.79738 | 12.24006 | 26 ft | 17 kts | 249° |
| 2026-05-07 10:00 | 41.79693 | 12.23848 | 26 ft | 13 kts | 249° |
| 2026-05-07 10:00 | 41.79706 | 12.23761 | 26 ft | 9 kts | 320° |
| 2026-05-07 10:00 | 41.79785 | 12.23716 | 26 ft | 16 kts | 343° |
| 2026-05-07 10:01 | 41.79921 | 12.23659 | 26 ft | 23 kts | 343° |
| 2026-05-07 10:01 | 41.80078 | 12.23593 | 26 ft | 21 kts | 342° |
| 2026-05-07 10:01 | 41.80219 | 12.23532 | 26 ft | 21 kts | 342° |
| 2026-05-07 10:01 | 41.80366 | 12.23469 | 26 ft | 22 kts | 342° |
| 2026-05-07 10:02 | 41.80512 | 12.23409 | 26 ft | 22 kts | 343° |
| 2026-05-07 10:02 | 41.80656 | 12.23348 | 26 ft | 21 kts | 341° |
| 2026-05-07 10:02 | 41.80791 | 12.23289 | 26 ft | 20 kts | 342° |
| 2026-05-07 10:02 | 41.80919 | 12.23238 | 26 ft | 18 kts | 343° |
| 2026-05-07 10:03 | 41.81042 | 12.23187 | 26 ft | 17 kts | 343° |
| 2026-05-07 10:03 | 41.81157 | 12.23138 | 26 ft | 16 kts | 342° |
| 2026-05-07 10:03 | 41.81267 | 12.23092 | 26 ft | 15 kts | 342° |
| 2026-05-07 10:03 | 41.81370 | 12.23048 | 26 ft | 15 kts | 342° |
| 2026-05-07 10:04 | 41.81464 | 12.23006 | 26 ft | 13 kts | 335° |
| 2026-05-07 10:04 | 41.81524 | 12.22915 | 26 ft | 12 kts | 298° |
| 2026-05-07 10:04 | 41.81562 | 12.22813 | 26 ft | 11 kts | 287° |
| 2026-05-07 10:04 | 41.81556 | 12.22715 | 26 ft | 10 kts | 254° |
| 2026-05-07 10:05 | 41.81531 | 12.22652 | 26 ft | 5 kts | 195° |
| 2026-05-07 10:05 | 41.81520 | 12.22654 | 26 ft | 0 kts | 161° |
| 2026-05-07 10:05 | 41.81512 | 12.22658 | 26 ft | 8 kts | 161° |
| 2026-05-07 10:05 | 41.81331 | 12.22736 | 26 ft | 50 kts | 162° |
| 2026-05-07 10:06 | 41.80846 | 12.22939 | 26 ft | 96 kts | 163° |
| 2026-05-07 10:06 | 41.80063 | 12.23267 | 26 ft | 139 kts | 162° |
| 2026-05-07 10:06 | 41.79003 | 12.23714 | 28 ft | 181 kts | 162° |
| 2026-05-07 10:06 | 41.77763 | 12.24210 | 519 ft | 181 kts | 164° |
| 2026-05-07 10:07 | 41.76541 | 12.24522 | 1050 ft | 184 kts | 175° |
| 2026-05-07 10:07 | 41.75251 | 12.24467 | 1518 ft | 191 kts | 195° |
| 2026-05-07 10:07 | 41.74023 | 12.23728 | 2018 ft | 201 kts | 215° |
| 2026-05-07 10:07 | 41.72973 | 12.22419 | 2518 ft | 217 kts | 229° |
| 2026-05-07 10:08 | 41.71940 | 12.20833 | 2958 ft | 239 kts | 228° |
| 2026-05-07 10:08 | 41.70777 | 12.19097 | 3362 ft | 259 kts | 232° |
| 2026-05-07 10:08 | 41.69860 | 12.17002 | 3813 ft | 263 kts | 253° |
| 2026-05-07 10:08 | 41.69634 | 12.14604 | 4377 ft | 262 kts | 274° |
| 2026-05-07 10:09 | 41.69928 | 12.12210 | 4971 ft | 263 kts | 287° |
| 2026-05-07 10:09 | 41.70444 | 12.09885 | 5571 ft | 265 kts | 287° |
| 2026-05-07 10:09 | 41.70940 | 12.07510 | 6176 ft | 267 kts | 287° |
| 2026-05-07 10:09 | 41.71436 | 12.05132 | 6768 ft | 268 kts | 287° |
| 2026-05-07 10:10 | 41.71946 | 12.02715 | 7361 ft | 270 kts | 287° |
| 2026-05-07 10:10 | 41.72457 | 12.00286 | 7947 ft | 272 kts | 287° |
| 2026-05-07 10:10 | 41.72969 | 11.97861 | 8521 ft | 274 kts | 287° |
| 2026-05-07 10:10 | 41.73486 | 11.95406 | 9091 ft | 276 kts | 287° |
| 2026-05-07 10:11 | 41.74008 | 11.92934 | 9653 ft | 277 kts | 287° |
| 2026-05-07 10:11 | 41.74530 | 11.90463 | 10210 ft | 279 kts | 287° |
| 2026-05-07 10:11 | 41.75057 | 11.87967 | 10679 ft | 284 kts | 287° |
| 2026-05-07 10:11 | 41.75606 | 11.85368 | 11042 ft | 294 kts | 287° |
| 2026-05-07 10:12 | 41.76168 | 11.82703 | 11391 ft | 301 kts | 287° |
| 2026-05-07 10:12 | 41.76730 | 11.79924 | 11444 ft | 322 kts | 283° |
| 2026-05-07 10:12 | 41.77056 | 11.76862 | 11487 ft | 344 kts | 277° |
| 2026-05-07 10:12 | 41.77313 | 11.73615 | 11757 ft | 351 kts | 278° |
| 2026-05-07 10:13 | 41.77588 | 11.70404 | 12252 ft | 352 kts | 278° |
| 2026-05-07 10:13 | 41.77862 | 11.67108 | 12823 ft | 354 kts | 278° |
| 2026-05-07 10:13 | 41.78132 | 11.63849 | 13410 ft | 356 kts | 278° |
| 2026-05-07 10:13 | 41.78402 | 11.60576 | 14000 ft | 358 kts | 278° |
| 2026-05-07 10:14 | 41.78726 | 11.57267 | 14577 ft | 359 kts | 285° |
| 2026-05-07 10:14 | 41.79722 | 11.54226 | 15116 ft | 357 kts | 307° |
| 2026-05-07 10:14 | 41.81296 | 11.51687 | 15689 ft | 356 kts | 312° |
| 2026-05-07 10:14 | 41.82914 | 11.49148 | 16261 ft | 357 kts | 311° |
| 2026-05-07 10:15 | 41.84499 | 11.46645 | 16810 ft | 359 kts | 312° |
| 2026-05-07 10:15 | 41.86126 | 11.44115 | 17344 ft | 360 kts | 312° |
| 2026-05-07 10:15 | 41.87784 | 11.41546 | 17875 ft | 362 kts | 312° |
| 2026-05-07 10:15 | 41.89431 | 11.38999 | 18392 ft | 364 kts | 312° |
| 2026-05-07 10:16 | 41.91087 | 11.36443 | 18894 ft | 366 kts | 312° |
| 2026-05-07 10:16 | 41.92742 | 11.33881 | 19383 ft | 368 kts | 311° |
| 2026-05-07 10:16 | 41.94406 | 11.31254 | 19873 ft | 370 kts | 311° |
| 2026-05-07 10:16 | 41.96072 | 11.28649 | 20354 ft | 371 kts | 312° |
| 2026-05-07 10:17 | 41.97768 | 11.26019 | 20822 ft | 373 kts | 312° |
| 2026-05-07 10:17 | 41.99458 | 11.23404 | 21270 ft | 375 kts | 312° |
| 2026-05-07 10:17 | 42.01170 | 11.20761 | 21719 ft | 377 kts | 312° |
| 2026-05-07 10:17 | 42.02884 | 11.18117 | 22160 ft | 378 kts | 312° |
| 2026-05-07 10:18 | 42.04632 | 11.15420 | 22587 ft | 380 kts | 312° |
| 2026-05-07 10:18 | 42.06351 | 11.12771 | 23007 ft | 382 kts | 313° |
| 2026-05-07 10:18 | 42.08090 | 11.10090 | 23412 ft | 383 kts | 313° |
| 2026-05-07 10:18 | 42.09848 | 11.07379 | 23806 ft | 385 kts | 313° |
| 2026-05-07 10:19 | 42.11625 | 11.04647 | 24211 ft | 387 kts | 313° |
| 2026-05-07 10:19 | 42.13398 | 11.01927 | 24602 ft | 389 kts | 313° |
| 2026-05-07 10:19 | 42.15161 | 10.99213 | 24956 ft | 391 kts | 313° |
| 2026-05-07 10:19 | 42.16960 | 10.96441 | 25310 ft | 393 kts | 312° |
| 2026-05-07 10:20 | 42.18754 | 10.93675 | 25651 ft | 395 kts | 312° |
| 2026-05-07 10:20 | 42.20557 | 10.90894 | 25980 ft | 398 kts | 312° |
| 2026-05-07 10:20 | 42.22373 | 10.88094 | 26305 ft | 400 kts | 312° |
| 2026-05-07 10:20 | 42.24210 | 10.85259 | 26623 ft | 402 kts | 312° |
| 2026-05-07 10:21 | 42.26045 | 10.82427 | 26924 ft | 404 kts | 312° |
| 2026-05-07 10:21 | 42.27913 | 10.79601 | 27202 ft | 407 kts | 316° |
| 2026-05-07 10:21 | 42.30209 | 10.77384 | 27474 ft | 409 kts | 334° |
| 2026-05-07 10:21 | 42.32872 | 10.75971 | 27784 ft | 412 kts | 338° |
| 2026-05-07 10:22 | 42.35531 | 10.74617 | 28064 ft | 414 kts | 337° |
| 2026-05-07 10:22 | 42.38249 | 10.73219 | 28347 ft | 416 kts | 338° |
| 2026-05-07 10:22 | 42.40945 | 10.71860 | 28634 ft | 417 kts | 338° |
| 2026-05-07 10:22 | 42.43670 | 10.70491 | 28917 ft | 419 kts | 338° |
| 2026-05-07 10:23 | 42.46401 | 10.69122 | 29188 ft | 420 kts | 338° |
| 2026-05-07 10:23 | 42.49137 | 10.67754 | 29455 ft | 422 kts | 338° |
| 2026-05-07 10:23 | 42.51887 | 10.66378 | 29720 ft | 423 kts | 338° |
| 2026-05-07 10:23 | 42.54621 | 10.65010 | 29980 ft | 425 kts | 338° |
| 2026-05-07 10:24 | 42.57389 | 10.63626 | 30217 ft | 426 kts | 338° |
| 2026-05-07 10:24 | 42.60184 | 10.62228 | 30464 ft | 428 kts | 338° |
| 2026-05-07 10:24 | 42.62960 | 10.60840 | 30695 ft | 429 kts | 338° |
| 2026-05-07 10:24 | 42.65735 | 10.59452 | 30938 ft | 429 kts | 338° |
| 2026-05-07 10:25 | 42.68518 | 10.58061 | 31195 ft | 428 kts | 338° |
| 2026-05-07 10:25 | 42.71285 | 10.56678 | 31454 ft | 427 kts | 338° |
| 2026-05-07 10:25 | 42.74079 | 10.55280 | 31711 ft | 426 kts | 338° |
| 2026-05-07 10:25 | 42.76844 | 10.53898 | 31962 ft | 425 kts | 338° |
| 2026-05-07 10:26 | 42.79609 | 10.52515 | 32204 ft | 424 kts | 338° |
| 2026-05-07 10:26 | 42.82342 | 10.51148 | 32439 ft | 423 kts | 338° |
| 2026-05-07 10:26 | 42.85117 | 10.49759 | 32676 ft | 422 kts | 338° |
| 2026-05-07 10:26 | 42.87863 | 10.48386 | 32897 ft | 421 kts | 338° |
| 2026-05-07 10:27 | 42.90604 | 10.47015 | 33117 ft | 421 kts | 338° |
| 2026-05-07 10:27 | 42.93319 | 10.45657 | 33336 ft | 419 kts | 338° |
| 2026-05-07 10:27 | 42.96046 | 10.44293 | 33550 ft | 418 kts | 338° |
| 2026-05-07 10:27 | 42.98767 | 10.42931 | 33753 ft | 418 kts | 338° |
| 2026-05-07 10:28 | 43.01468 | 10.41580 | 33957 ft | 417 kts | 338° |
| 2026-05-07 10:28 | 43.06975 | 10.38821 | 34046 ft | 426 kts | 338° |
| 2026-05-07 10:29 | 43.12524 | 10.36044 | 34039 ft | 425 kts | 338° |
| 2026-05-07 10:29 | 43.17957 | 10.33021 | 34050 ft | 420 kts | 327° |
| 2026-05-07 10:30 | 43.25024 | 10.26061 | 34049 ft | 419 kts | 323° |
| 2026-05-07 10:30 | 43.29743 | 10.21340 | 34049 ft | 419 kts | 323° |
| 2026-05-07 10:31 | 43.34417 | 10.16656 | 34048 ft | 419 kts | 323° |
| 2026-05-07 10:31 | 43.39122 | 10.11937 | 34048 ft | 419 kts | 323° |
| 2026-05-07 10:32 | 43.43823 | 10.07222 | 34048 ft | 420 kts | 323° |
| 2026-05-07 10:32 | 43.48512 | 10.02519 | 34048 ft | 419 kts | 323° |
| 2026-05-07 10:33 | 43.53217 | 9.97801 | 34048 ft | 419 kts | 323° |
| 2026-05-07 10:33 | 43.57923 | 9.93080 | 34048 ft | 419 kts | 323° |
| 2026-05-07 10:34 | 43.62613 | 9.88377 | 34047 ft | 419 kts | 323° |
| 2026-05-07 10:34 | 43.67302 | 9.83674 | 34047 ft | 419 kts | 323° |
| 2026-05-07 10:35 | 43.72023 | 9.78938 | 34047 ft | 419 kts | 323° |
| 2026-05-07 10:35 | 43.76724 | 9.74223 | 34047 ft | 419 kts | 323° |
| 2026-05-07 10:36 | 43.81412 | 9.69521 | 34047 ft | 419 kts | 323° |
| 2026-05-07 10:36 | 43.86146 | 9.64773 | 34046 ft | 419 kts | 323° |
| 2026-05-07 10:37 | 43.90867 | 9.60037 | 34046 ft | 419 kts | 323° |
| 2026-05-07 10:37 | 43.95557 | 9.55333 | 34046 ft | 420 kts | 323° |
| 2026-05-07 10:38 | 44.00281 | 9.50594 | 34046 ft | 419 kts | 323° |
| 2026-05-07 10:38 | 44.04985 | 9.45876 | 34042 ft | 419 kts | 323° |
| 2026-05-07 10:39 | 44.09716 | 9.41130 | 34034 ft | 419 kts | 323° |
| 2026-05-07 10:39 | 44.14434 | 9.36412 | 34025 ft | 420 kts | 323° |
| 2026-05-07 10:40 | 44.19130 | 9.31639 | 34021 ft | 419 kts | 322° |
| 2026-05-07 10:40 | 44.23814 | 9.26904 | 34022 ft | 419 kts | 323° |
| 2026-05-07 10:41 | 44.28539 | 9.22159 | 34021 ft | 419 kts | 323° |
| 2026-05-07 10:41 | 44.33268 | 9.17416 | 34021 ft | 419 kts | 323° |
| 2026-05-07 10:42 | 44.37971 | 9.12700 | 34022 ft | 419 kts | 323° |
| 2026-05-07 10:42 | 44.42668 | 9.07922 | 34020 ft | 419 kts | 320° |
| 2026-05-07 10:43 | 44.47054 | 9.02490 | 34022 ft | 419 kts | 317° |
| 2026-05-07 10:43 | 44.51380 | 8.97049 | 34020 ft | 419 kts | 317° |
| 2026-05-07 10:44 | 44.55680 | 8.91615 | 34021 ft | 420 kts | 316° |
| 2026-05-07 10:44 | 44.60028 | 8.86115 | 34021 ft | 421 kts | 316° |
| 2026-05-07 10:45 | 44.64351 | 8.80645 | 34020 ft | 421 kts | 316° |
| 2026-05-07 10:45 | 44.68692 | 8.75152 | 34020 ft | 421 kts | 316° |
| 2026-05-07 10:46 | 44.73036 | 8.69656 | 34020 ft | 421 kts | 316° |
| 2026-05-07 10:46 | 44.77359 | 8.64185 | 34020 ft | 421 kts | 316° |
| 2026-05-07 10:47 | 44.81695 | 8.58699 | 34020 ft | 421 kts | 316° |
| 2026-05-07 10:47 | 44.86060 | 8.53175 | 34019 ft | 421 kts | 316° |
| 2026-05-07 10:48 | 44.90397 | 8.47687 | 34019 ft | 421 kts | 316° |
| 2026-05-07 10:48 | 44.94743 | 8.42187 | 34020 ft | 422 kts | 317° |
| 2026-05-07 10:49 | 44.99090 | 8.36687 | 34019 ft | 421 kts | 317° |
| 2026-05-07 10:49 | 45.03421 | 8.31133 | 34020 ft | 422 kts | 315° |
| 2026-05-07 10:50 | 45.07769 | 8.25583 | 34021 ft | 422 kts | 316° |
| 2026-05-07 10:50 | 45.12137 | 8.20054 | 34022 ft | 423 kts | 316° |
| 2026-05-07 10:51 | 45.16521 | 8.14521 | 34021 ft | 423 kts | 316° |
| 2026-05-07 10:51 | 45.20909 | 8.08970 | 34021 ft | 423 kts | 316° |
| 2026-05-07 10:52 | 45.25269 | 8.03453 | 34021 ft | 423 kts | 316° |
| 2026-05-07 10:52 | 45.29646 | 7.97915 | 34021 ft | 423 kts | 316° |
| 2026-05-07 10:53 | 45.34037 | 7.92358 | 34021 ft | 423 kts | 316° |
| 2026-05-07 10:53 | 45.38417 | 7.86817 | 34021 ft | 424 kts | 316° |
| 2026-05-07 10:54 | 45.42796 | 7.81275 | 34020 ft | 423 kts | 316° |
| 2026-05-07 10:54 | 45.47197 | 7.75706 | 34017 ft | 423 kts | 316° |